Main page
METAR-TAF:

METAR-TAF

Airports :

Lowe Army Heliport

Fort Rucker, Alabama, United States

latitude: 31-21-32N, longitude: 085-44-54W, elevation: 256 ft

Current weather observation

The report was made 1 hour and 9 minutes ago, at 03:55 UTC
Wind 3 mph from the West/Northwest
Temperature 50°F
Humidity 76%
Pressure 29.88 in. Hg
Visibility: 10 miles
Clear sky

METAR: KLOR 240355Z AUTO 29003KT 10SM CLR 10/06 A2988 RMK AO2 SLP101 T01030055

Time: 23:04 (05:04 UTC)


TAF: missing

Weather observations and forecasts of more than 4000 airports (METAR and TAF reports).

The available stations are represented by yellow and red dots on the map.

Hover mouse over dot to see the name of the station.

Then click to see weather observations and forecasts.

To change the map : click on the green buttons with a black cross to zoom in, on the green button with a dash to zoom out, or on the green arrows for adjacent maps.


METAR-TAF: